Scottish Airport Reports

Civil airfields updated at H+20 and H+50
RAF airfields updated at H+50 only

EGPD - Aberdeen
Distance from station: NNE 19mi, 31km
Updated: 23/04/2018 16:20
Mostly cloudy
Mostly cloudy
 Wind from SW
Wind: SW 14 mph , 22 km/h
Temperature: 12°C
Dew Point: 4°C
Humidity: 58%
Barometer: 1003 hPa
Clouds: Mostly cloudy
Visibility: 6 miles , 10 km
Cloud details: Mostly cloudy 4500 ft
2018/04/23 15:20 EGPD 231520Z AUTO 22012KT 9999 BKN045 12/04 Q1003
EGPN - Dundee
Distance from station: SW 41mi, 66km
Updated: 23/04/2018 16:20
Partly cloudy
Partly cloudy
 Wind from WSW
Wind: WSW 21 mph , 33 km/h
Temperature: 12°C
Dew Point: 7°C
Humidity: 72%
Barometer: 1004 hPa
Clouds: Partly cloudy
Visibility: 6 miles , 10 km
Cloud details: Partly cloudy 4200 ft
2018/04/23 15:20 EGPN 231520Z 24018KT 9999 SCT042 12/07 Q1004
 
EGQS - RAF Lossiemouth
Distance from station: NNW 63mi, 102km
Updated: 23/04/2018 15:50
Mostly cloudy
Mostly cloudy
 Wind from W
Wind: W 15 mph , 24 km/h
Temperature: 12°C
Dew Point: 7°C
Humidity: 72%
Barometer: 1002 hPa
Clouds: Mostly cloudy
Visibility: 6 miles , 10 km
Cloud details: Few Clouds 3200 ft
Partly cloudy 5000 ft
Mostly cloudy 10000 ft
2018/04/23 14:50 EGQS 231450Z 26013KT 9999 FEW032 SCT050 BKN100 12/07 Q1002 BLU NOSIG
EGPE - Inverness
Distance from station: WNW 73mi, 117km
Updated: 23/04/2018 16:20
Mostly cloudy
Mostly cloudy
 Wind from SW
Wind: SW 21 mph , 33 km/h
Temperature: 12°C
Dew Point: 6°C
Humidity: 67%
Barometer: 1002 hPa
Clouds: Mostly cloudy
Visibility: 6 miles , 10 km
Cloud details: Few Clouds 1800 ft
Mostly cloudy 3700 ft
2018/04/23 15:20 EGPE 231520Z 22018KT 9999 FEW018 BKN037 12/06 Q1002
 
EGPH - Edinburgh
Distance from station: SSW 77mi, 125km
Updated: 23/04/2018 16:20
Light rain, Showers, Mostly cloudy
Light rain, Showers, Mostly cloudy
 Wind from WSW
Wind: WSW 16 mph , 26 km/h
Temperature: 11°C
Dew Point: 5°C
Humidity: 67%
Barometer: 1005 hPa
Summary: Light rain, Showers
Clouds: Mostly cloudy
Visibility: 6 miles , 10 km
Cloud details: Mostly cloudy 2700 ft
2018/04/23 15:20 EGPH 231520Z 24014KT 9999 -SHRA BKN027 11/05 Q1005
EGPC - Wick
Distance from station: NNW 107mi, 172km
Updated: 23/04/2018 16:20
Partly cloudy
Partly cloudy
 Wind from W
Wind: W 12 mph , 19 km/h
Temperature: 12°C
Dew Point: 6°C
Humidity: 67%
Barometer: 1001 hPa
Clouds: Partly cloudy
Visibility: 6 miles , 10 km
Cloud details: Few Clouds 2400 ft
Partly cloudy 3400 ft
2018/04/23 15:20 EGPC 231520Z 26010KT 9999 FEW024 SCT034 12/06 Q1001
 
EGPF - Glasgow
Distance from station: SW 107mi, 172km
Updated: 23/04/2018 16:20
Light rain, Thunderstorm
Light rain, Thunderstorm
 Wind from SSW
Wind: SSW 14 mph , 22 km/h
Temperature: 10°C
Wind Chill: 7°C
Dew Point: 8°C
Humidity: 88%
Barometer: 1006 hPa
Summary: Light rain
Clouds: Thunderstorm
Visibility: 6 miles , 10 km
Cloud details: Mostly cloudy 1400 ft
Mostly cloudy 2200 ft
Overcast 4200 ft
2018/04/23 15:20 EGPF 231520Z AUTO 20012KT 9999 -RA BKN014/// BKN022/// OVC042/// //////CB 10/08 Q1006
EGPK - Prestwick
Distance from station: SW 130mi, 209km
Updated: 23/04/2018 16:20
Light rain, Mostly cloudy
Light rain, Mostly cloudy
 Wind from S
Wind: S 13 mph , 20 km/h, Gust: 24 mph , 39 km/h
Temperature: 9°C
Wind Chill: 6°C
Dew Point: 8°C
Humidity: 94%
Barometer: 1006 hPa
Summary: Light rain
Clouds: Mostly cloudy
Visibility: 5 miles , 8 km
Cloud details: Partly cloudy 1700 ft
Mostly cloudy 2400 ft
2018/04/23 15:20 EGPK 231520Z 19011G21KT 8000 -RA SCT017 BKN024 09/08 Q1006
 
EGPA - Kirkwall, Orkney
Distance from station: N 140mi, 225km
Updated: 23/04/2018 16:20
Partly cloudy
Partly cloudy
 Wind from W
Wind: W 22 mph , 35 km/h
Temperature: 11°C
Dew Point: 7°C
Humidity: 77%
Barometer: 1000 hPa
Clouds: Partly cloudy
Visibility: 6 miles , 10 km
Cloud details: Few Clouds 2000 ft
Partly cloudy 2200 ft
2018/04/23 15:20 EGPA 231520Z 26019KT 9999 FEW020 SCT022 11/07 Q1000
EGPO - Stornoway, Outer Hebrides
Distance from station: WNW 169mi, 273km
Updated: 23/04/2018 16:20
Mostly cloudy
Mostly cloudy
 Wind from SW
Wind: SW 15 mph , 24 km/h
Temperature: 9°C
Wind Chill: 6°C
Dew Point: 6°C
Humidity: 82%
Barometer: 1001 hPa
Clouds: Mostly cloudy
Visibility: 6 miles , 10 km
Cloud details: Few Clouds 1700 ft
Partly cloudy 2500 ft
Mostly cloudy 4400 ft
2018/04/23 15:20 EGPO 231520Z 22013KT 9999 FEW017 SCT025 BKN044 09/06 Q1001
 
EGPI - Islay, Inner Hebrides
Distance from station: WSW 172mi, 276km
Updated: 23/04/2018 16:20
Light drizzle, Mostly cloudy
Light drizzle, Mostly cloudy
 Wind from SSE
Wind: SSE 17 mph , 28 km/h
Temperature: 9°C
Wind Chill: 6°C
Dew Point: 9°C
Humidity: 100%
Barometer: 1003 hPa
Summary: Light Drizzle
Clouds: Mostly cloudy
Visibility: 3 miles , 5 km
Cloud details: Partly cloudy 300 ft
Partly cloudy 1000 ft
Mostly cloudy 1700 ft
2018/04/23 15:20 EGPI 231520Z 15015KT 120V180 5000 -DZ SCT003 SCT010 BKN017 09/09 Q1003
EGPU - Tiree, Inner Hebrides
Distance from station: W 172mi, 276km
Updated: 23/04/2018 16:20
Light rain, Drizzle, Mostly cloudy
Light rain, Drizzle, Mostly cloudy
 Wind from SSE
Wind: SSE 21 mph , 33 km/h
Temperature: 8°C
Wind Chill: 3°C
Dew Point: 8°C
Humidity: 100%
Barometer: 1001 hPa
Summary: Light rain, Drizzle
Clouds: Mostly cloudy
Visibility: 1 mile , 2 km
Cloud details: Mostly cloudy 200 ft
2018/04/23 15:20 EGPU 231520Z 15018KT 1700 -RADZ BKN002 08/08 Q1001
 
EGPB - Sumburgh, Shetland
Distance from station: NNE 208mi, 332km
Updated: 23/04/2018 16:20
Partly cloudy
Partly cloudy
 Wind from WSW
Wind: WSW 23 mph , 37 km/h
Temperature: 9°C
Wind Chill: 4°C
Dew Point: 6°C
Humidity: 82%
Barometer: 998 hPa
Clouds: Partly cloudy
Visibility: 6 miles , 10 km
Cloud details: Few Clouds 1000 ft
Partly cloudy 3900 ft
2018/04/23 15:20 EGPB 231520Z 25020KT 9999 FEW010 SCT039 09/06 Q0998
EGPM - Scatsa, Shetland
Distance from station: NNE 245mi, 392km
Updated: 23/04/2018 16:20
Few Clouds
Few Clouds
 Wind from WSW
Wind: WSW 24 mph , 39 km/h
Temperature: 9°C
Wind Chill: 4°C
Dew Point: 6°C
Humidity: 82%
Barometer: 996 hPa
Clouds: Few Clouds
Visibility: 6 miles , 10 km
Cloud details: Few Clouds 1000 ft
2018/04/23 15:20 EGPM 231520Z 24021KT 9999 FEW010 09/06 Q0996
-->